<?xml version='1.0' encoding='utf-8'?>
<gpx xmlns="http://www.topografix.com/GPX/1/1" xmlns:om="http://www.oruxmaps.com/oruxmapsextensions/1/0" xmlns:xsi="http://www.w3.org/2001/XMLSchema-instance" creator="OruxMaps v.6.0.7 Donate" version="1.1" xsi:schemaLocation="http://www.topografix.com/GPX/1/1 http://www.topografix.com/GPX/1/1/gpx.xsd">
<metadata>
<name>2015-04-26 11:57</name>
<desc />
<link href="http://www.oruxmaps.com">
<text>OruxMaps</text>
</link>
<time>2015-04-26T08:57:10Z</time><bounds maxlat="35.1723756" maxlon="32.5865581" minlat="35.0353119" minlon="32.4246848" />
</metadata>
<trk>
<name>2015-04-26 11:57</name>
<desc>&lt;h1&gt;OruxMaps&lt;/h1&gt;&lt;br /&gt;&lt;hr align="center" width="480" style="height: 2px; width: 517px"/&gt;&lt;h2&gt;Name: 2015-04-26 11:57&lt;/h2&gt;&lt;br /&gt;&lt;p&gt;Start time: 04/26/2015 11:57&lt;/p&gt;&lt;p&gt;Finish time: 04/26/2015 20:11&lt;/p&gt;&lt;p&gt;Distance: 62.4km (08:14)&lt;/p&gt;&lt;p&gt;Moving time: 04:38&lt;/p&gt;&lt;p&gt;Average speed: 7.6km/h&lt;/p&gt;&lt;p&gt;Avg. Speed Mov.: 13.4km/h&lt;/p&gt;&lt;p&gt;Max. Speed: 42.7km/h&lt;/p&gt;&lt;p&gt;Minimum altitude: 8m&lt;/p&gt;&lt;p&gt;Maximum altitude: 211m&lt;/p&gt;&lt;p&gt;Ascent speed: 268.7m/h&lt;/p&gt;&lt;p&gt;Descent speed: -517.9m/h&lt;/p&gt;&lt;p&gt;Elevation gain: 1187m&lt;/p&gt;&lt;p&gt;Elevation loss: -1220m&lt;/p&gt;&lt;p&gt;Ascent time: 04:25&lt;/p&gt;&lt;p&gt;Descent time: 02:21&lt;/p&gt;&lt;hr align="center" width="480" style="height: 2px; width: 517px"/&gt;</desc>
<type>Undefined</type>
<extensions>
<om:oruxmapsextensions>
<om:ext type="TYPE" subtype="0">0</om:ext>
</om:oruxmapsextensions>
</extensions>
<trkseg>
<trkpt lat="35.1106433" lon="32.5082114">
<ele>5.3</ele>
<time>2015-04-26T08:57:10Z</time>
</trkpt>
<trkpt lat="35.1108524" lon="32.5076794">
<ele>7.8</ele>
<time>2015-04-26T08:58:29Z</time>
</trkpt>
<trkpt lat="35.1057454" lon="32.5042049">
<ele>4.7</ele>
<time>2015-04-26T09:03:16Z</time>
</trkpt>
<trkpt lat="35.1036553" lon="32.5035862">
<ele>5.5</ele>
<time>2015-04-26T09:04:44Z</time>
</trkpt>
<trkpt lat="35.1035282" lon="32.5036735">
<ele>5.2</ele>
<time>2015-04-26T09:04:50Z</time>
</trkpt>
<trkpt lat="35.1035787" lon="32.5042182">
<ele>7.4</ele>
<time>2015-04-26T09:05:08Z</time>
</trkpt>
<trkpt lat="35.1034255" lon="32.5045383">
<ele>9.8</ele>
<time>2015-04-26T09:05:21Z</time>
</trkpt>
<trkpt lat="35.1027752" lon="32.5048694">
<ele>14.8</ele>
<time>2015-04-26T09:05:56Z</time>
</trkpt>
<trkpt lat="35.1022316" lon="32.5055022">
<ele>18.2</ele>
<time>2015-04-26T09:06:38Z</time>
</trkpt>
<trkpt lat="35.1015713" lon="32.5074128">
<ele>28.1</ele>
<time>2015-04-26T09:07:44Z</time>
</trkpt>
<trkpt lat="35.1009515" lon="32.5083255">
<ele>35.6</ele>
<time>2015-04-26T09:08:32Z</time>
</trkpt>
<trkpt lat="35.1010648" lon="32.5107090">
<ele>45.8</ele>
<time>2015-04-26T09:09:55Z</time>
</trkpt>
<trkpt lat="35.1013168" lon="32.5125647">
<ele>46.1</ele>
<time>2015-04-26T09:10:28Z</time>
</trkpt>
<trkpt lat="35.1010970" lon="32.5133091">
<ele>41.4</ele>
<time>2015-04-26T09:10:39Z</time>
</trkpt>
<trkpt lat="35.1006556" lon="32.5138881">
<ele>44.3</ele>
<time>2015-04-26T09:10:57Z</time>
</trkpt>
<trkpt lat="35.1003468" lon="32.5148632">
<ele>50.8</ele>
<time>2015-04-26T09:11:31Z</time>
</trkpt>
<trkpt lat="35.1005061" lon="32.5166216">
<ele>62.4</ele>
<time>2015-04-26T09:14:20Z</time>
</trkpt>
<trkpt lat="35.1002646" lon="32.5171648">
<ele>63.2</ele>
<time>2015-04-26T09:14:43Z</time>
</trkpt>
<trkpt lat="35.0998794" lon="32.5175435">
<ele>73.8</ele>
<time>2015-04-26T09:15:05Z</time>
</trkpt>
<trkpt lat="35.1004799" lon="32.5166565">
<ele>63.1</ele>
<time>2015-04-26T09:19:49Z</time>
</trkpt>
<trkpt lat="35.1003481" lon="32.5150063">
<ele>52.5</ele>
<time>2015-04-26T09:20:18Z</time>
</trkpt>
<trkpt lat="35.1004691" lon="32.5147067">
<ele>46.7</ele>
<time>2015-04-26T09:20:29Z</time>
</trkpt>
<trkpt lat="35.1006559" lon="32.5149172">
<ele>45.1</ele>
<time>2015-04-26T09:20:39Z</time>
</trkpt>
<trkpt lat="35.1011890" lon="32.5165782">
<ele>59.6</ele>
<time>2015-04-26T09:22:24Z</time>
</trkpt>
<trkpt lat="35.1011666" lon="32.5170660">
<ele>66.4</ele>
<time>2015-04-26T09:23:00Z</time>
</trkpt>
<trkpt lat="35.1008801" lon="32.5177000">
<ele>64.5</ele>
<time>2015-04-26T09:23:55Z</time>
</trkpt>
<trkpt lat="35.1007583" lon="32.5186885">
<ele>69.9</ele>
<time>2015-04-26T09:26:33Z</time>
</trkpt>
<trkpt lat="35.1008578" lon="32.5190666">
<ele>70.1</ele>
<time>2015-04-26T09:26:44Z</time>
</trkpt>
<trkpt lat="35.1015097" lon="32.5197625">
<ele>77.6</ele>
<time>2015-04-26T09:27:36Z</time>
</trkpt>
<trkpt lat="35.1020744" lon="32.5199692">
<ele>89.2</ele>
<time>2015-04-26T09:29:41Z</time>
</trkpt>
<trkpt lat="35.1025774" lon="32.5198160">
<ele>103.1</ele>
<time>2015-04-26T09:30:52Z</time>
</trkpt>
<trkpt lat="35.1024768" lon="32.5203906">
<ele>102.7</ele>
<time>2015-04-26T09:32:15Z</time>
</trkpt>
<trkpt lat="35.1031751" lon="32.5198143">
<ele>121.2</ele>
<time>2015-04-26T09:34:32Z</time>
</trkpt>
<trkpt lat="35.1033465" lon="32.5214348">
<ele>143.8</ele>
<time>2015-04-26T09:37:57Z</time>
</trkpt>
<trkpt lat="35.1035717" lon="32.5215034">
<ele>145.9</ele>
<time>2015-04-26T09:39:43Z</time>
</trkpt>
<trkpt lat="35.1041799" lon="32.5211850">
<ele>158.4</ele>
<time>2015-04-26T09:41:16Z</time>
</trkpt>
<trkpt lat="35.1043468" lon="32.5212990">
<ele>162.8</ele>
<time>2015-04-26T09:41:29Z</time>
</trkpt>
<trkpt lat="35.1045868" lon="32.5228474">
<ele>182.7</ele>
<time>2015-04-26T09:45:16Z</time>
</trkpt>
<trkpt lat="35.1049310" lon="32.5237256">
<ele>202.9</ele>
<time>2015-04-26T09:47:45Z</time>
</trkpt>
<trkpt lat="35.1055792" lon="32.5233359">
<ele>191.2</ele>
<time>2015-04-26T09:51:42Z</time>
</trkpt>
<trkpt lat="35.1062030" lon="32.5216083">
<ele>170.6</ele>
<time>2015-04-26T09:52:34Z</time>
</trkpt>
<trkpt lat="35.1062391" lon="32.5211820">
<ele>165.2</ele>
<time>2015-04-26T09:54:04Z</time>
</trkpt>
<trkpt lat="35.1059011" lon="32.5206897">
<ele>152.9</ele>
<time>2015-04-26T09:55:43Z</time>
</trkpt>
<trkpt lat="35.1057749" lon="32.5201309">
<ele>136.7</ele>
<time>2015-04-26T09:57:40Z</time>
</trkpt>
<trkpt lat="35.1056994" lon="32.5189292">
<ele>110.9</ele>
<time>2015-04-26T09:59:23Z</time>
</trkpt>
<trkpt lat="35.1066546" lon="32.5161452">
<ele>64.3</ele>
<time>2015-04-26T10:01:49Z</time>
</trkpt>
<trkpt lat="35.1064914" lon="32.5159692">
<ele>61.4</ele>
<time>2015-04-26T10:02:31Z</time>
</trkpt>
<trkpt lat="35.1060827" lon="32.5160204">
<ele>61.2</ele>
<time>2015-04-26T10:02:43Z</time>
</trkpt>
<trkpt lat="35.1061109" lon="32.5153616">
<ele>58.5</ele>
<time>2015-04-26T10:03:09Z</time>
</trkpt>
<trkpt lat="35.1059950" lon="32.5151189">
<ele>58.4</ele>
<time>2015-04-26T10:03:21Z</time>
</trkpt>
<trkpt lat="35.1051334" lon="32.5146689">
<ele>59.1</ele>
<time>2015-04-26T10:03:45Z</time>
</trkpt>
<trkpt lat="35.1043894" lon="32.5140054">
<ele>55.0</ele>
<time>2015-04-26T10:04:22Z</time>
</trkpt>
<trkpt lat="35.1058112" lon="32.5140279">
<ele>46.0</ele>
<time>2015-04-26T10:04:43Z</time>
</trkpt>
<trkpt lat="35.1071589" lon="32.5138265">
<ele>41.5</ele>
<time>2015-04-26T10:05:02Z</time>
</trkpt>
<trkpt lat="35.1082384" lon="32.5146021">
<ele>37.1</ele>
<time>2015-04-26T10:05:17Z</time>
</trkpt>
<trkpt lat="35.1093736" lon="32.5149640">
<ele>33.7</ele>
<time>2015-04-26T10:05:33Z</time>
</trkpt>
<trkpt lat="35.1101613" lon="32.5144465">
<ele>31.7</ele>
<time>2015-04-26T10:05:47Z</time>
</trkpt>
<trkpt lat="35.1116719" lon="32.5141636">
<ele>29.8</ele>
<time>2015-04-26T10:06:15Z</time>
</trkpt>
<trkpt lat="35.1131301" lon="32.5145950">
<ele>23.1</ele>
<time>2015-04-26T10:06:34Z</time>
</trkpt>
<trkpt lat="35.1141898" lon="32.5139263">
<ele>19.7</ele>
<time>2015-04-26T10:06:52Z</time>
</trkpt>
<trkpt lat="35.1147897" lon="32.5137383">
<ele>18.8</ele>
<time>2015-04-26T10:07:10Z</time>
</trkpt>
<trkpt lat="35.1147685" lon="32.5145209">
<ele>21.6</ele>
<time>2015-04-26T10:09:55Z</time>
</trkpt>
<trkpt lat="35.1146719" lon="32.5145126">
<ele>21.9</ele>
<time>2015-04-26T10:10:04Z</time>
</trkpt>
<trkpt lat="35.1150421" lon="32.5150657">
<ele>24.4</ele>
<time>2015-04-26T10:12:17Z</time>
</trkpt>
<trkpt lat="35.1149985" lon="32.5157938">
<ele>26.9</ele>
<time>2015-04-26T10:14:14Z</time>
</trkpt>
<trkpt lat="35.1153766" lon="32.5172025">
<ele>33.1</ele>
<time>2015-04-26T10:15:11Z</time>
</trkpt>
<trkpt lat="35.1155414" lon="32.5194054">
<ele>47.1</ele>
<time>2015-04-26T10:21:26Z</time>
</trkpt>
<trkpt lat="35.1151379" lon="32.5229113">
<ele>80.4</ele>
<time>2015-04-26T10:25:31Z</time>
</trkpt>
<trkpt lat="35.1147558" lon="32.5236010">
<ele>85.7</ele>
<time>2015-04-26T10:26:28Z</time>
</trkpt>
<trkpt lat="35.1143650" lon="32.5254691">
<ele>96.4</ele>
<time>2015-04-26T10:28:30Z</time>
</trkpt>
<trkpt lat="35.1145771" lon="32.5264094">
<ele>108.4</ele>
<time>2015-04-26T10:29:26Z</time>
</trkpt>
<trkpt lat="35.1143692" lon="32.5278706">
<ele>107.0</ele>
<time>2015-04-26T10:31:01Z</time>
</trkpt>
<trkpt lat="35.1144547" lon="32.5284991">
<ele>104.5</ele>
<time>2015-04-26T10:31:12Z</time>
</trkpt>
<trkpt lat="35.1148088" lon="32.5281811">
<ele>94.9</ele>
<time>2015-04-26T10:31:30Z</time>
</trkpt>
<trkpt lat="35.1152302" lon="32.5281379">
<ele>95.9</ele>
<time>2015-04-26T10:31:47Z</time>
</trkpt>
<trkpt lat="35.1156778" lon="32.5265063">
<ele>82.7</ele>
<time>2015-04-26T10:32:12Z</time>
</trkpt>
<trkpt lat="35.1162480" lon="32.5257905">
<ele>87.7</ele>
<time>2015-04-26T10:32:35Z</time>
</trkpt>
<trkpt lat="35.1163381" lon="32.5252058">
<ele>87.4</ele>
<time>2015-04-26T10:32:46Z</time>
</trkpt>
<trkpt lat="35.1168111" lon="32.5246359">
<ele>90.0</ele>
<time>2015-04-26T10:33:09Z</time>
</trkpt>
<trkpt lat="35.1171662" lon="32.5244810">
<ele>88.0</ele>
<time>2015-04-26T10:33:17Z</time>
</trkpt>
<trkpt lat="35.1176612" lon="32.5251948">
<ele>80.8</ele>
<time>2015-04-26T10:33:29Z</time>
</trkpt>
<trkpt lat="35.1180600" lon="32.5251874">
<ele>78.6</ele>
<time>2015-04-26T10:33:44Z</time>
</trkpt>
<trkpt lat="35.1185773" lon="32.5244601">
<ele>72.5</ele>
<time>2015-04-26T10:38:57Z</time>
</trkpt>
<trkpt lat="35.1186503" lon="32.5236141">
<ele>65.2</ele>
<time>2015-04-26T10:39:22Z</time>
</trkpt>
<trkpt lat="35.1187986" lon="32.5237140">
<ele>65.4</ele>
<time>2015-04-26T10:39:35Z</time>
</trkpt>
<trkpt lat="35.1189347" lon="32.5235891">
<ele>61.6</ele>
<time>2015-04-26T10:39:49Z</time>
</trkpt>
<trkpt lat="35.1194666" lon="32.5224645">
<ele>52.0</ele>
<time>2015-04-26T10:40:27Z</time>
</trkpt>
<trkpt lat="35.1199874" lon="32.5222291">
<ele>44.0</ele>
<time>2015-04-26T10:40:44Z</time>
</trkpt>
<trkpt lat="35.1211029" lon="32.5222282">
<ele>33.9</ele>
<time>2015-04-26T10:40:58Z</time>
</trkpt>
<trkpt lat="35.1215688" lon="32.5219735">
<ele>32.3</ele>
<time>2015-04-26T10:41:05Z</time>
</trkpt>
<trkpt lat="35.1216295" lon="32.5215426">
<ele>31.1</ele>
<time>2015-04-26T10:41:17Z</time>
</trkpt>
<trkpt lat="35.1215470" lon="32.5220325">
<ele>32.4</ele>
<time>2015-04-26T10:42:52Z</time>
</trkpt>
<trkpt lat="35.1216662" lon="32.5218392">
<ele>32.1</ele>
<time>2015-04-26T10:43:11Z</time>
</trkpt>
<trkpt lat="35.1221107" lon="32.5226013">
<ele>46.2</ele>
<time>2015-04-26T10:45:18Z</time>
</trkpt>
<trkpt lat="35.1225830" lon="32.5228578">
<ele>46.4</ele>
<time>2015-04-26T10:45:41Z</time>
</trkpt>
<trkpt lat="35.1227307" lon="32.5231797">
<ele>48.6</ele>
<time>2015-04-26T10:45:59Z</time>
</trkpt>
<trkpt lat="35.1225490" lon="32.5228568">
<ele>46.8</ele>
<time>2015-04-26T10:46:35Z</time>
</trkpt>
<trkpt lat="35.1221161" lon="32.5226095">
<ele>46.3</ele>
<time>2015-04-26T10:46:53Z</time>
</trkpt>
<trkpt lat="35.1220882" lon="32.5223615">
<ele>42.5</ele>
<time>2015-04-26T10:47:02Z</time>
</trkpt>
<trkpt lat="35.1216638" lon="32.5218768">
<ele>32.2</ele>
<time>2015-04-26T10:47:23Z</time>
</trkpt>
<trkpt lat="35.1203346" lon="32.5224832">
<ele>37.5</ele>
<time>2015-04-26T10:48:12Z</time>
</trkpt>
<trkpt lat="35.1201577" lon="32.5231708">
<ele>40.6</ele>
<time>2015-04-26T10:48:32Z</time>
</trkpt>
<trkpt lat="35.1196816" lon="32.5237288">
<ele>43.0</ele>
<time>2015-04-26T10:48:54Z</time>
</trkpt>
<trkpt lat="35.1197003" lon="32.5248788">
<ele>50.2</ele>
<time>2015-04-26T10:49:28Z</time>
</trkpt>
<trkpt lat="35.1194577" lon="32.5254531">
<ele>55.6</ele>
<time>2015-04-26T10:49:49Z</time>
</trkpt>
<trkpt lat="35.1196987" lon="32.5260260">
<ele>52.5</ele>
<time>2015-04-26T10:50:27Z</time>
</trkpt>
<trkpt lat="35.1199677" lon="32.5254489">
<ele>52.3</ele>
<time>2015-04-26T10:50:57Z</time>
</trkpt>
<trkpt lat="35.1205318" lon="32.5250366">
<ele>60.4</ele>
<time>2015-04-26T10:51:37Z</time>
</trkpt>
<trkpt lat="35.1205691" lon="32.5247354">
<ele>61.0</ele>
<time>2015-04-26T10:51:57Z</time>
</trkpt>
<trkpt lat="35.1209820" lon="32.5249858">
<ele>70.9</ele>
<time>2015-04-26T10:52:30Z</time>
</trkpt>
<trkpt lat="35.1219594" lon="32.5251756">
<ele>68.6</ele>
<time>2015-04-26T10:52:53Z</time>
</trkpt>
<trkpt lat="35.1222093" lon="32.5251142">
<ele>67.1</ele>
<time>2015-04-26T10:52:57Z</time>
</trkpt>
<trkpt lat="35.1225046" lon="32.5246880">
<ele>72.3</ele>
<time>2015-04-26T10:53:21Z</time>
</trkpt>
<trkpt lat="35.1229872" lon="32.5247450">
<ele>78.6</ele>
<time>2015-04-26T10:53:45Z</time>
</trkpt>
<trkpt lat="35.1249028" lon="32.5260285">
<ele>87.2</ele>
<time>2015-04-26T10:54:53Z</time>
</trkpt>
<trkpt lat="35.1251440" lon="32.5263518">
<ele>87.3</ele>
<time>2015-04-26T10:55:14Z</time>
</trkpt>
<trkpt lat="35.1252049" lon="32.5268788">
<ele>89.7</ele>
<time>2015-04-26T10:55:28Z</time>
</trkpt>
<trkpt lat="35.1255447" lon="32.5267751">
<ele>88.4</ele>
<time>2015-04-26T10:55:40Z</time>
</trkpt>
<trkpt lat="35.1260047" lon="32.5274051">
<ele>82.1</ele>
<time>2015-04-26T10:56:00Z</time>
</trkpt>
<trkpt lat="35.1262586" lon="32.5273771">
<ele>80.5</ele>
<time>2015-04-26T10:56:05Z</time>
</trkpt>
<trkpt lat="35.1263045" lon="32.5269439">
<ele>78.1</ele>
<time>2015-04-26T10:56:20Z</time>
</trkpt>
<trkpt lat="35.1264689" lon="32.5267688">
<ele>83.0</ele>
<time>2015-04-26T10:56:32Z</time>
</trkpt>
<trkpt lat="35.1268282" lon="32.5268900">
<ele>88.5</ele>
<time>2015-04-26T10:56:54Z</time>
</trkpt>
<trkpt lat="35.1273861" lon="32.5275134">
<ele>80.2</ele>
<time>2015-04-26T10:57:30Z</time>
</trkpt>
<trkpt lat="35.1279016" lon="32.5275668">
<ele>79.7</ele>
<time>2015-04-26T10:57:37Z</time>
</trkpt>
<trkpt lat="35.1280308" lon="32.5272850">
<ele>79.3</ele>
<time>2015-04-26T10:57:46Z</time>
</trkpt>
<trkpt lat="35.1283018" lon="32.5271928">
<ele>82.1</ele>
<time>2015-04-26T10:58:00Z</time>
</trkpt>
<trkpt lat="35.1280745" lon="32.5273788">
<ele>80.3</ele>
<time>2015-04-26T10:58:19Z</time>
</trkpt>
<trkpt lat="35.1284657" lon="32.5281369">
<ele>90.6</ele>
<time>2015-04-26T10:59:29Z</time>
</trkpt>
<trkpt lat="35.1289735" lon="32.5282154">
<ele>98.8</ele>
<time>2015-04-26T11:00:28Z</time>
</trkpt>
<trkpt lat="35.1294264" lon="32.5285125">
<ele>99.2</ele>
<time>2015-04-26T11:00:48Z</time>
</trkpt>
<trkpt lat="35.1299328" lon="32.5290215">
<ele>98.2</ele>
<time>2015-04-26T11:01:14Z</time>
</trkpt>
<trkpt lat="35.1298836" lon="32.5293474">
<ele>102.6</ele>
<time>2015-04-26T11:01:34Z</time>
</trkpt>
<trkpt lat="35.1306327" lon="32.5297171">
<ele>108.7</ele>
<time>2015-04-26T11:03:02Z</time>
</trkpt>
<trkpt lat="35.1309296" lon="32.5301903">
<ele>105.9</ele>
<time>2015-04-26T11:03:18Z</time>
</trkpt>
<trkpt lat="35.1314272" lon="32.5302280">
<ele>103.6</ele>
<time>2015-04-26T11:04:07Z</time>
</trkpt>
<trkpt lat="35.1315275" lon="32.5297950">
<ele>98.8</ele>
<time>2015-04-26T11:04:21Z</time>
</trkpt>
<trkpt lat="35.1318890" lon="32.5296145">
<ele>105.2</ele>
<time>2015-04-26T11:04:42Z</time>
</trkpt>
<trkpt lat="35.1323855" lon="32.5296890">
<ele>110.0</ele>
<time>2015-04-26T11:05:01Z</time>
</trkpt>
<trkpt lat="35.1325394" lon="32.5284761">
<ele>104.6</ele>
<time>2015-04-26T11:05:46Z</time>
</trkpt>
<trkpt lat="35.1327624" lon="32.5282126">
<ele>104.9</ele>
<time>2015-04-26T11:05:54Z</time>
</trkpt>
<trkpt lat="35.1342462" lon="32.5277643">
<ele>100.3</ele>
<time>2015-04-26T11:06:42Z</time>
</trkpt>
<trkpt lat="35.1346505" lon="32.5281890">
<ele>105.7</ele>
<time>2015-04-26T11:07:02Z</time>
</trkpt>
<trkpt lat="35.1348655" lon="32.5289944">
<ele>106.3</ele>
<time>2015-04-26T11:07:22Z</time>
</trkpt>
<trkpt lat="35.1357313" lon="32.5281713">
<ele>99.2</ele>
<time>2015-04-26T11:36:12Z</time>
</trkpt>
<trkpt lat="35.1361409" lon="32.5283038">
<ele>104.5</ele>
<time>2015-04-26T11:36:40Z</time>
</trkpt>
<trkpt lat="35.1366008" lon="32.5279486">
<ele>96.1</ele>
<time>2015-04-26T11:37:02Z</time>
</trkpt>
<trkpt lat="35.1371097" lon="32.5287171">
<ele>91.5</ele>
<time>2015-04-26T11:37:23Z</time>
</trkpt>
<trkpt lat="35.1374916" lon="32.5282747">
<ele>86.7</ele>
<time>2015-04-26T11:37:35Z</time>
</trkpt>
<trkpt lat="35.1378773" lon="32.5281444">
<ele>86.5</ele>
<time>2015-04-26T11:37:46Z</time>
</trkpt>
<trkpt lat="35.1387173" lon="32.5291874">
<ele>88.9</ele>
<time>2015-04-26T11:38:20Z</time>
</trkpt>
<trkpt lat="35.1391618" lon="32.5286804">
<ele>84.0</ele>
<time>2015-04-26T11:38:42Z</time>
</trkpt>
<trkpt lat="35.1395088" lon="32.5288254">
<ele>87.4</ele>
<time>2015-04-26T11:38:54Z</time>
</trkpt>
<trkpt lat="35.1399943" lon="32.5296564">
<ele>94.4</ele>
<time>2015-04-26T11:39:35Z</time>
</trkpt>
<trkpt lat="35.1403991" lon="32.5295981">
<ele>86.5</ele>
<time>2015-04-26T11:39:55Z</time>
</trkpt>
<trkpt lat="35.1407747" lon="32.5304792">
<ele>93.4</ele>
<time>2015-04-26T11:40:37Z</time>
</trkpt>
<trkpt lat="35.1410738" lon="32.5299730">
<ele>84.4</ele>
<time>2015-04-26T11:40:55Z</time>
</trkpt>
<trkpt lat="35.1414984" lon="32.5297131">
<ele>85.7</ele>
<time>2015-04-26T11:41:09Z</time>
</trkpt>
<trkpt lat="35.1416994" lon="32.5298659">
<ele>84.8</ele>
<time>2015-04-26T11:41:19Z</time>
</trkpt>
<trkpt lat="35.1417056" lon="32.5306451">
<ele>93.9</ele>
<time>2015-04-26T11:41:43Z</time>
</trkpt>
<trkpt lat="35.1421500" lon="32.5302886">
<ele>87.0</ele>
<time>2015-04-26T11:41:59Z</time>
</trkpt>
<trkpt lat="35.1425803" lon="32.5302656">
<ele>88.8</ele>
<time>2015-04-26T11:42:16Z</time>
</trkpt>
<trkpt lat="35.1429353" lon="32.5304634">
<ele>90.8</ele>
<time>2015-04-26T11:42:32Z</time>
</trkpt>
<trkpt lat="35.1430875" lon="32.5310494">
<ele>96.6</ele>
<time>2015-04-26T11:42:57Z</time>
</trkpt>
<trkpt lat="35.1437033" lon="32.5305732">
<ele>88.6</ele>
<time>2015-04-26T11:45:03Z</time>
</trkpt>
<trkpt lat="35.1441355" lon="32.5304910">
<ele>87.2</ele>
<time>2015-04-26T11:45:23Z</time>
</trkpt>
<trkpt lat="35.1442622" lon="32.5306702">
<ele>85.8</ele>
<time>2015-04-26T11:45:38Z</time>
</trkpt>
<trkpt lat="35.1440754" lon="32.5317544">
<ele>97.7</ele>
<time>2015-04-26T11:47:33Z</time>
</trkpt>
<trkpt lat="35.1442161" lon="32.5325579">
<ele>97.1</ele>
<time>2015-04-26T11:47:56Z</time>
</trkpt>
<trkpt lat="35.1440539" lon="32.5326396">
<ele>108.3</ele>
<time>2015-04-26T11:53:14Z</time>
</trkpt>
<trkpt lat="35.1438341" lon="32.5334954">
<ele>102.2</ele>
<time>2015-04-26T11:54:48Z</time>
</trkpt>
<trkpt lat="35.1429871" lon="32.5343990">
<ele>104.0</ele>
<time>2015-04-26T11:55:13Z</time>
</trkpt>
<trkpt lat="35.1429320" lon="32.5348508">
<ele>101.1</ele>
<time>2015-04-26T11:55:22Z</time>
</trkpt>
<trkpt lat="35.1431310" lon="32.5349923">
<ele>88.9</ele>
<time>2015-04-26T11:55:27Z</time>
</trkpt>
<trkpt lat="35.1436775" lon="32.5347686">
<ele>92.6</ele>
<time>2015-04-26T11:55:54Z</time>
</trkpt>
<trkpt lat="35.1451918" lon="32.5337475">
<ele>90.1</ele>
<time>2015-04-26T11:57:06Z</time>
</trkpt>
<trkpt lat="35.1459647" lon="32.5346978">
<ele>98.9</ele>
<time>2015-04-26T11:57:53Z</time>
</trkpt>
<trkpt lat="35.1460503" lon="32.5355291">
<ele>102.8</ele>
<time>2015-04-26T11:58:20Z</time>
</trkpt>
<trkpt lat="35.1466692" lon="32.5354298">
<ele>91.1</ele>
<time>2015-04-26T11:58:47Z</time>
</trkpt>
<trkpt lat="35.1467435" lon="32.5361349">
<ele>96.1</ele>
<time>2015-04-26T11:59:09Z</time>
</trkpt>
<trkpt lat="35.1466173" lon="32.5365643">
<ele>101.9</ele>
<time>2015-04-26T11:59:24Z</time>
</trkpt>
<trkpt lat="35.1475042" lon="32.5365152">
<ele>92.7</ele>
<time>2015-04-26T11:59:50Z</time>
</trkpt>
<trkpt lat="35.1477589" lon="32.5382280">
<ele>105.6</ele>
<time>2015-04-26T12:00:39Z</time>
</trkpt>
<trkpt lat="35.1482822" lon="32.5393311">
<ele>101.8</ele>
<time>2015-04-26T12:01:07Z</time>
</trkpt>
<trkpt lat="35.1482990" lon="32.5398529">
<ele>105.5</ele>
<time>2015-04-26T12:01:19Z</time>
</trkpt>
<trkpt lat="35.1488778" lon="32.5404288">
<ele>100.3</ele>
<time>2015-04-26T12:01:37Z</time>
</trkpt>
<trkpt lat="35.1488869" lon="32.5412190">
<ele>104.3</ele>
<time>2015-04-26T12:01:54Z</time>
</trkpt>
<trkpt lat="35.1493966" lon="32.5414042">
<ele>94.3</ele>
<time>2015-04-26T12:02:07Z</time>
</trkpt>
<trkpt lat="35.1494694" lon="32.5419228">
<ele>100.4</ele>
<time>2015-04-26T12:02:18Z</time>
</trkpt>
<trkpt lat="35.1499844" lon="32.5419712">
<ele>89.7</ele>
<time>2015-04-26T12:02:34Z</time>
</trkpt>
<trkpt lat="35.1494070" lon="32.5426466">
<ele>102.3</ele>
<time>2015-04-26T12:03:02Z</time>
</trkpt>
<trkpt lat="35.1494474" lon="32.5430066">
<ele>103.2</ele>
<time>2015-04-26T12:03:11Z</time>
</trkpt>
<trkpt lat="35.1496269" lon="32.5430855">
<ele>99.0</ele>
<time>2015-04-26T12:03:17Z</time>
</trkpt>
<trkpt lat="35.1503369" lon="32.5427868">
<ele>93.2</ele>
<time>2015-04-26T12:03:41Z</time>
</trkpt>
<trkpt lat="35.1506447" lon="32.5432498">
<ele>94.2</ele>
<time>2015-04-26T12:03:59Z</time>
</trkpt>
<trkpt lat="35.1505204" lon="32.5437998">
<ele>101.5</ele>
<time>2015-04-26T12:04:13Z</time>
</trkpt>
<trkpt lat="35.1509488" lon="32.5442365">
<ele>97.0</ele>
<time>2015-04-26T12:04:36Z</time>
</trkpt>
<trkpt lat="35.1510172" lon="32.5446140">
<ele>103.8</ele>
<time>2015-04-26T12:04:46Z</time>
</trkpt>
<trkpt lat="35.1517847" lon="32.5450850">
<ele>99.5</ele>
<time>2015-04-26T12:05:10Z</time>
</trkpt>
<trkpt lat="35.1525175" lon="32.5449869">
<ele>91.8</ele>
<time>2015-04-26T12:07:42Z</time>
</trkpt>
<trkpt lat="35.1525242" lon="32.5452610">
<ele>89.6</ele>
<time>2015-04-26T12:07:54Z</time>
</trkpt>
<trkpt lat="35.1518774" lon="32.5459642">
<ele>98.9</ele>
<time>2015-04-26T12:08:21Z</time>
</trkpt>
<trkpt lat="35.1529252" lon="32.5460444">
<ele>96.0</ele>
<time>2015-04-26T12:08:52Z</time>
</trkpt>
<trkpt lat="35.1532205" lon="32.5471678">
<ele>103.5</ele>
<time>2015-04-26T12:09:19Z</time>
</trkpt>
<trkpt lat="35.1534734" lon="32.5474074">
<ele>98.1</ele>
<time>2015-04-26T12:09:27Z</time>
</trkpt>
<trkpt lat="35.1535802" lon="32.5478425">
<ele>102.0</ele>
<time>2015-04-26T12:09:36Z</time>
</trkpt>
<trkpt lat="35.1537725" lon="32.5479986">
<ele>100.2</ele>
<time>2015-04-26T12:09:42Z</time>
</trkpt>
<trkpt lat="35.1540405" lon="32.5479062">
<ele>96.2</ele>
<time>2015-04-26T12:09:50Z</time>
</trkpt>
<trkpt lat="35.1542716" lon="32.5481791">
<ele>98.6</ele>
<time>2015-04-26T12:09:58Z</time>
</trkpt>
<trkpt lat="35.1544825" lon="32.5492721">
<ele>97.8</ele>
<time>2015-04-26T12:10:22Z</time>
</trkpt>
<trkpt lat="35.1553064" lon="32.5483113">
<ele>94.3</ele>
<time>2015-04-26T12:10:58Z</time>
</trkpt>
<trkpt lat="35.1564725" lon="32.5485774">
<ele>82.8</ele>
<time>2015-04-26T12:11:24Z</time>
</trkpt>
<trkpt lat="35.1595614" lon="32.5480346">
<ele>43.4</ele>
<time>2015-04-26T12:12:17Z</time>
</trkpt>
<trkpt lat="35.1592203" lon="32.5485687">
<ele>40.2</ele>
<time>2015-04-26T12:14:24Z</time>
</trkpt>
<trkpt lat="35.1599831" lon="32.5504841">
<ele>30.5</ele>
<time>2015-04-26T12:15:06Z</time>
</trkpt>
<trkpt lat="35.1603127" lon="32.5519997">
<ele>27.0</ele>
<time>2015-04-26T12:16:11Z</time>
</trkpt>
<trkpt lat="35.1605314" lon="32.5522006">
<ele>22.4</ele>
<time>2015-04-26T12:16:22Z</time>
</trkpt>
<trkpt lat="35.1622740" lon="32.5507830">
<ele>16.5</ele>
<time>2015-04-26T12:17:08Z</time>
</trkpt>
<trkpt lat="35.1633031" lon="32.5491136">
<ele>16.1</ele>
<time>2015-04-26T12:17:55Z</time>
</trkpt>
<trkpt lat="35.1633114" lon="32.5482840">
<ele>13.3</ele>
<time>2015-04-26T12:18:16Z</time>
</trkpt>
<trkpt lat="35.1645880" lon="32.5481560">
<ele>21.9</ele>
<time>2015-04-26T12:19:17Z</time>
</trkpt>
<trkpt lat="35.1674158" lon="32.5482346">
<ele>19.6</ele>
<time>2015-04-26T12:20:34Z</time>
</trkpt>
<trkpt lat="35.1681160" lon="32.5486699">
<ele>18.9</ele>
<time>2015-04-26T12:21:07Z</time>
</trkpt>
<trkpt lat="35.1694856" lon="32.5490210">
<ele>19.7</ele>
<time>2015-04-26T12:21:47Z</time>
</trkpt>
<trkpt lat="35.1705936" lon="32.5495417">
<ele>19.0</ele>
<time>2015-04-26T12:22:11Z</time>
</trkpt>
<trkpt lat="35.1715607" lon="32.5504614">
<ele>19.0</ele>
<time>2015-04-26T12:22:33Z</time>
</trkpt>
<trkpt lat="35.1719656" lon="32.5511907">
<ele>18.0</ele>
<time>2015-04-26T12:22:45Z</time>
</trkpt>
<trkpt lat="35.1723259" lon="32.5527051">
<ele>17.2</ele>
<time>2015-04-26T12:23:06Z</time>
</trkpt>
<trkpt lat="35.1723453" lon="32.5542207">
<ele>18.9</ele>
<time>2015-04-26T12:23:32Z</time>
</trkpt>
<trkpt lat="35.1721683" lon="32.5551767">
<ele>16.7</ele>
<time>2015-04-26T12:23:52Z</time>
</trkpt>
<trkpt lat="35.1714713" lon="32.5565445">
<ele>18.5</ele>
<time>2015-04-26T12:24:26Z</time>
</trkpt>
<trkpt lat="35.1704134" lon="32.5579568">
<ele>22.3</ele>
<time>2015-04-26T12:24:54Z</time>
</trkpt>
<trkpt lat="35.1684082" lon="32.5632343">
<ele>33.1</ele>
<time>2015-04-26T12:26:35Z</time>
</trkpt>
<trkpt lat="35.1681925" lon="32.5644672">
<ele>38.0</ele>
<time>2015-04-26T12:26:59Z</time>
</trkpt>
<trkpt lat="35.1683249" lon="32.5656792">
<ele>37.3</ele>
<time>2015-04-26T12:27:17Z</time>
</trkpt>
<trkpt lat="35.1688112" lon="32.5669392">
<ele>31.4</ele>
<time>2015-04-26T12:27:34Z</time>
</trkpt>
<trkpt lat="35.1694118" lon="32.5692203">
<ele>26.9</ele>
<time>2015-04-26T12:28:02Z</time>
</trkpt>
<trkpt lat="35.1692975" lon="32.5712060">
<ele>31.4</ele>
<time>2015-04-26T12:28:45Z</time>
</trkpt>
<trkpt lat="35.1696773" lon="32.5733666">
<ele>31.8</ele>
<time>2015-04-26T12:29:21Z</time>
</trkpt>
<trkpt lat="35.1698949" lon="32.5762423">
<ele>32.8</ele>
<time>2015-04-26T12:30:01Z</time>
</trkpt>
<trkpt lat="35.1702024" lon="32.5771109">
<ele>31.1</ele>
<time>2015-04-26T12:30:12Z</time>
</trkpt>
<trkpt lat="35.1710662" lon="32.5779738">
<ele>27.6</ele>
<time>2015-04-26T12:30:31Z</time>
</trkpt>
<trkpt lat="35.1712221" lon="32.5786924">
<ele>29.4</ele>
<time>2015-04-26T12:30:46Z</time>
</trkpt>
<trkpt lat="35.1711504" lon="32.5805914">
<ele>35.5</ele>
<time>2015-04-26T12:34:11Z</time>
</trkpt>
<trkpt lat="35.1714152" lon="32.5820217">
<ele>36.6</ele>
<time>2015-04-26T12:34:56Z</time>
</trkpt>
<trkpt lat="35.1711223" lon="32.5833532">
<ele>43.0</ele>
<time>2015-04-26T12:35:28Z</time>
</trkpt>
<trkpt lat="35.1711350" lon="32.5840037">
<ele>42.1</ele>
<time>2015-04-26T12:35:46Z</time>
</trkpt>
<trkpt lat="35.1708318" lon="32.5848599">
<ele>44.4</ele>
<time>2015-04-26T12:36:21Z</time>
</trkpt>
<trkpt lat="35.1709903" lon="32.5856313">
<ele>51.4</ele>
<time>2015-04-26T12:37:08Z</time>
</trkpt>
<trkpt lat="35.1708622" lon="32.5864805">
<ele>45.0</ele>
<time>2015-04-26T12:37:47Z</time>
</trkpt>
<trkpt lat="35.1706235" lon="32.5865517">
<ele>45.0</ele>
<time>2015-04-26T12:40:49Z</time>
</trkpt>
<trkpt lat="35.1691952" lon="32.5858746">
<ele>60.4</ele>
<time>2015-04-26T12:42:20Z</time>
</trkpt>
<trkpt lat="35.1687263" lon="32.5860137">
<ele>60.5</ele>
<time>2015-04-26T12:42:47Z</time>
</trkpt>
<trkpt lat="35.1677155" lon="32.5858510">
<ele>77.1</ele>
<time>2015-04-26T12:43:42Z</time>
</trkpt>
<trkpt lat="35.1673279" lon="32.5854743">
<ele>80.0</ele>
<time>2015-04-26T12:44:18Z</time>
</trkpt>
<trkpt lat="35.1671418" lon="32.5849907">
<ele>87.6</ele>
<time>2015-04-26T12:44:54Z</time>
</trkpt>
<trkpt lat="35.1672646" lon="32.5849407">
<ele>86.2</ele>
<time>2015-04-26T12:45:06Z</time>
</trkpt>
<trkpt lat="35.1677723" lon="32.5854430">
<ele>82.1</ele>
<time>2015-04-26T12:45:44Z</time>
</trkpt>
<trkpt lat="35.1681591" lon="32.5850948">
<ele>92.4</ele>
<time>2015-04-26T12:46:08Z</time>
</trkpt>
<trkpt lat="35.1687276" lon="32.5850018">
<ele>93.4</ele>
<time>2015-04-26T12:46:37Z</time>
</trkpt>
<trkpt lat="35.1688373" lon="32.5844889">
<ele>104.7</ele>
<time>2015-04-26T12:46:59Z</time>
</trkpt>
<trkpt lat="35.1701230" lon="32.5839393">
<ele>81.5</ele>
<time>2015-04-26T12:49:55Z</time>
</trkpt>
<trkpt lat="35.1702500" lon="32.5836922">
<ele>83.7</ele>
<time>2015-04-26T12:50:04Z</time>
</trkpt>
<trkpt lat="35.1701499" lon="32.5830305">
<ele>86.3</ele>
<time>2015-04-26T12:50:20Z</time>
</trkpt>
<trkpt lat="35.1702822" lon="32.5825528">
<ele>78.2</ele>
<time>2015-04-26T12:50:32Z</time>
</trkpt>
<trkpt lat="35.1700384" lon="32.5819720">
<ele>75.5</ele>
<time>2015-04-26T12:51:07Z</time>
</trkpt>
<trkpt lat="35.1692784" lon="32.5815560">
<ele>88.9</ele>
<time>2015-04-26T12:52:31Z</time>
</trkpt>
<trkpt lat="35.1687669" lon="32.5814910">
<ele>99.1</ele>
<time>2015-04-26T12:54:54Z</time>
</trkpt>
<trkpt lat="35.1687699" lon="32.5813268">
<ele>98.6</ele>
<time>2015-04-26T12:55:24Z</time>
</trkpt>
<trkpt lat="35.1697111" lon="32.5806664">
<ele>96.3</ele>
<time>2015-04-26T12:56:43Z</time>
</trkpt>
<trkpt lat="35.1697694" lon="32.5799918">
<ele>109.1</ele>
<time>2015-04-26T12:57:08Z</time>
</trkpt>
<trkpt lat="35.1695828" lon="32.5796649">
<ele>112.9</ele>
<time>2015-04-26T12:58:36Z</time>
</trkpt>
<trkpt lat="35.1688680" lon="32.5791471">
<ele>118.4</ele>
<time>2015-04-26T12:59:11Z</time>
</trkpt>
<trkpt lat="35.1683465" lon="32.5783821">
<ele>132.5</ele>
<time>2015-04-26T13:00:45Z</time>
</trkpt>
<trkpt lat="35.1682330" lon="32.5778727">
<ele>130.7</ele>
<time>2015-04-26T13:01:33Z</time>
</trkpt>
<trkpt lat="35.1676727" lon="32.5775478">
<ele>149.3</ele>
<time>2015-04-26T13:02:40Z</time>
</trkpt>
<trkpt lat="35.1682063" lon="32.5768710">
<ele>146.9</ele>
<time>2015-04-26T13:04:45Z</time>
</trkpt>
<trkpt lat="35.1677587" lon="32.5755877">
<ele>149.9</ele>
<time>2015-04-26T13:14:47Z</time>
</trkpt>
<trkpt lat="35.1679853" lon="32.5744624">
<ele>136.6</ele>
<time>2015-04-26T13:15:14Z</time>
</trkpt>
<trkpt lat="35.1679145" lon="32.5737914">
<ele>138.1</ele>
<time>2015-04-26T13:15:25Z</time>
</trkpt>
<trkpt lat="35.1676667" lon="32.5731993">
<ele>136.1</ele>
<time>2015-04-26T13:15:35Z</time>
</trkpt>
<trkpt lat="35.1665884" lon="32.5671545">
<ele>91.7</ele>
<time>2015-04-26T13:17:38Z</time>
</trkpt>
<trkpt lat="35.1661605" lon="32.5663388">
<ele>97.0</ele>
<time>2015-04-26T13:18:03Z</time>
</trkpt>
<trkpt lat="35.1660666" lon="32.5651497">
<ele>91.3</ele>
<time>2015-04-26T13:18:37Z</time>
</trkpt>
<trkpt lat="35.1654779" lon="32.5647456">
<ele>95.2</ele>
<time>2015-04-26T13:19:06Z</time>
</trkpt>
<trkpt lat="35.1652811" lon="32.5641935">
<ele>94.5</ele>
<time>2015-04-26T13:19:24Z</time>
</trkpt>
<trkpt lat="35.1658719" lon="32.5634400">
<ele>91.6</ele>
<time>2015-04-26T13:19:48Z</time>
</trkpt>
<trkpt lat="35.1654843" lon="32.5625167">
<ele>100.8</ele>
<time>2015-04-26T13:20:10Z</time>
</trkpt>
<trkpt lat="35.1660713" lon="32.5623992">
<ele>82.7</ele>
<time>2015-04-26T13:20:25Z</time>
</trkpt>
<trkpt lat="35.1665893" lon="32.5615713">
<ele>92.7</ele>
<time>2015-04-26T13:20:45Z</time>
</trkpt>
<trkpt lat="35.1665933" lon="32.5612405">
<ele>93.4</ele>
<time>2015-04-26T13:20:53Z</time>
</trkpt>
<trkpt lat="35.1662816" lon="32.5609717">
<ele>96.7</ele>
<time>2015-04-26T13:21:02Z</time>
</trkpt>
<trkpt lat="35.1664413" lon="32.5604126">
<ele>93.3</ele>
<time>2015-04-26T13:21:13Z</time>
</trkpt>
<trkpt lat="35.1662900" lon="32.5598108">
<ele>98.6</ele>
<time>2015-04-26T13:21:27Z</time>
</trkpt>
<trkpt lat="35.1700807" lon="32.5553166">
<ele>87.4</ele>
<time>2015-04-26T13:26:38Z</time>
</trkpt>
<trkpt lat="35.1703822" lon="32.5547364">
<ele>92.7</ele>
<time>2015-04-26T13:28:05Z</time>
</trkpt>
<trkpt lat="35.1704356" lon="32.5541924">
<ele>92.5</ele>
<time>2015-04-26T13:28:23Z</time>
</trkpt>
<trkpt lat="35.1702662" lon="32.5540309">
<ele>91.2</ele>
<time>2015-04-26T13:28:33Z</time>
</trkpt>
<trkpt lat="35.1696965" lon="32.5541412">
<ele>95.6</ele>
<time>2015-04-26T13:28:53Z</time>
</trkpt>
<trkpt lat="35.1691236" lon="32.5535573">
<ele>94.8</ele>
<time>2015-04-26T13:29:30Z</time>
</trkpt>
<trkpt lat="35.1682279" lon="32.5533076">
<ele>94.2</ele>
<time>2015-04-26T13:30:05Z</time>
</trkpt>
<trkpt lat="35.1674329" lon="32.5536850">
<ele>88.9</ele>
<time>2015-04-26T13:30:40Z</time>
</trkpt>
<trkpt lat="35.1672635" lon="32.5542414">
<ele>97.1</ele>
<time>2015-04-26T13:30:59Z</time>
</trkpt>
<trkpt lat="35.1667932" lon="32.5541766">
<ele>93.7</ele>
<time>2015-04-26T13:31:16Z</time>
</trkpt>
<trkpt lat="35.1662435" lon="32.5543897">
<ele>90.1</ele>
<time>2015-04-26T13:31:39Z</time>
</trkpt>
<trkpt lat="35.1659072" lon="32.5549135">
<ele>96.8</ele>
<time>2015-04-26T13:31:59Z</time>
</trkpt>
<trkpt lat="35.1656473" lon="32.5544975">
<ele>91.8</ele>
<time>2015-04-26T13:32:13Z</time>
</trkpt>
<trkpt lat="35.1648593" lon="32.5545972">
<ele>93.7</ele>
<time>2015-04-26T13:32:50Z</time>
</trkpt>
<trkpt lat="35.1641195" lon="32.5529297">
<ele>64.0</ele>
<time>2015-04-26T13:40:24Z</time>
</trkpt>
<trkpt lat="35.1628656" lon="32.5529656">
<ele>51.9</ele>
<time>2015-04-26T13:40:54Z</time>
</trkpt>
<trkpt lat="35.1627888" lon="32.5521928">
<ele>50.2</ele>
<time>2015-04-26T13:41:06Z</time>
</trkpt>
<trkpt lat="35.1630921" lon="32.5515946">
<ele>48.0</ele>
<time>2015-04-26T13:41:17Z</time>
</trkpt>
<trkpt lat="35.1634230" lon="32.5515766">
<ele>48.9</ele>
<time>2015-04-26T13:41:25Z</time>
</trkpt>
<trkpt lat="35.1636301" lon="32.5503613">
<ele>35.1</ele>
<time>2015-04-26T13:41:41Z</time>
</trkpt>
<trkpt lat="35.1632827" lon="32.5480598">
<ele>12.3</ele>
<time>2015-04-26T13:42:07Z</time>
</trkpt>
<trkpt lat="35.1643871" lon="32.5472557">
<ele>11.3</ele>
<time>2015-04-26T13:42:30Z</time>
</trkpt>
<trkpt lat="35.1645491" lon="32.5469058">
<ele>8.4</ele>
<time>2015-04-26T13:42:38Z</time>
</trkpt>
<trkpt lat="35.1623677" lon="32.5468362">
<ele>8.1</ele>
<time>2015-04-26T13:44:01Z</time>
</trkpt>
<trkpt lat="35.1616630" lon="32.5465843">
<ele>9.7</ele>
<time>2015-04-26T13:44:31Z</time>
</trkpt>
<trkpt lat="35.1612046" lon="32.5460252">
<ele>11.3</ele>
<time>2015-04-26T13:44:58Z</time>
</trkpt>
<trkpt lat="35.1612310" lon="32.5457292">
<ele>12.2</ele>
<time>2015-04-26T13:45:10Z</time>
</trkpt>
<trkpt lat="35.1610312" lon="32.5452746">
<ele>14.9</ele>
<time>2015-04-26T13:45:31Z</time>
</trkpt>
<trkpt lat="35.1601655" lon="32.5448406">
<ele>17.3</ele>
<time>2015-04-26T13:46:15Z</time>
</trkpt>
<trkpt lat="35.1604134" lon="32.5457825">
<ele>19.9</ele>
<time>2015-04-26T13:47:20Z</time>
</trkpt>
<trkpt lat="35.1606954" lon="32.5456648">
<ele>16.9</ele>
<time>2015-04-26T13:47:37Z</time>
</trkpt>
<trkpt lat="35.1603779" lon="32.5457247">
<ele>19.5</ele>
<time>2015-04-26T13:48:01Z</time>
</trkpt>
<trkpt lat="35.1600671" lon="32.5447720">
<ele>17.1</ele>
<time>2015-04-26T13:48:26Z</time>
</trkpt>
<trkpt lat="35.1589742" lon="32.5438793">
<ele>19.3</ele>
<time>2015-04-26T13:49:04Z</time>
</trkpt>
<trkpt lat="35.1582006" lon="32.5429023">
<ele>22.6</ele>
<time>2015-04-26T13:49:41Z</time>
</trkpt>
<trkpt lat="35.1567081" lon="32.5429417">
<ele>23.4</ele>
<time>2015-04-26T13:50:23Z</time>
</trkpt>
<trkpt lat="35.1553190" lon="32.5418678">
<ele>18.4</ele>
<time>2015-04-26T13:50:46Z</time>
</trkpt>
<trkpt lat="35.1535139" lon="32.5409065">
<ele>29.2</ele>
<time>2015-04-26T13:51:33Z</time>
</trkpt>
<trkpt lat="35.1525029" lon="32.5407622">
<ele>35.9</ele>
<time>2015-04-26T13:52:21Z</time>
</trkpt>
<trkpt lat="35.1516765" lon="32.5391784">
<ele>40.6</ele>
<time>2015-04-26T13:53:20Z</time>
</trkpt>
<trkpt lat="35.1493806" lon="32.5376607">
<ele>37.4</ele>
<time>2015-04-26T13:54:05Z</time>
</trkpt>
<trkpt lat="35.1488940" lon="32.5370594">
<ele>39.3</ele>
<time>2015-04-26T13:54:18Z</time>
</trkpt>
<trkpt lat="35.1486829" lon="32.5365145">
<ele>40.3</ele>
<time>2015-04-26T13:54:28Z</time>
</trkpt>
<trkpt lat="35.1489660" lon="32.5348307">
<ele>42.0</ele>
<time>2015-04-26T13:54:58Z</time>
</trkpt>
<trkpt lat="35.1488919" lon="32.5344626">
<ele>41.4</ele>
<time>2015-04-26T13:55:04Z</time>
</trkpt>
<trkpt lat="35.1479095" lon="32.5339965">
<ele>34.2</ele>
<time>2015-04-26T13:55:22Z</time>
</trkpt>
<trkpt lat="35.1478303" lon="32.5330250">
<ele>37.6</ele>
<time>2015-04-26T13:55:33Z</time>
</trkpt>
<trkpt lat="35.1475920" lon="32.5327328">
<ele>38.6</ele>
<time>2015-04-26T13:55:38Z</time>
</trkpt>
<trkpt lat="35.1457869" lon="32.5328169">
<ele>40.6</ele>
<time>2015-04-26T13:56:07Z</time>
</trkpt>
<trkpt lat="35.1454929" lon="32.5326541">
<ele>39.0</ele>
<time>2015-04-26T13:56:17Z</time>
</trkpt>
<trkpt lat="35.1453824" lon="32.5323860">
<ele>45.2</ele>
<time>2015-04-26T13:56:25Z</time>
</trkpt>
<trkpt lat="35.1454519" lon="32.5320819">
<ele>45.9</ele>
<time>2015-04-26T13:56:33Z</time>
</trkpt>
<trkpt lat="35.1466342" lon="32.5311847">
<ele>44.1</ele>
<time>2015-04-26T13:57:25Z</time>
</trkpt>
<trkpt lat="35.1467049" lon="32.5307147">
<ele>51.0</ele>
<time>2015-04-26T13:57:40Z</time>
</trkpt>
<trkpt lat="35.1457558" lon="32.5297281">
<ele>49.1</ele>
<time>2015-04-26T13:58:22Z</time>
</trkpt>
<trkpt lat="35.1456272" lon="32.5293742">
<ele>47.1</ele>
<time>2015-04-26T13:58:32Z</time>
</trkpt>
<trkpt lat="35.1456445" lon="32.5295680">
<ele>48.3</ele>
<time>2015-04-26T14:02:51Z</time>
</trkpt>
<trkpt lat="35.1436381" lon="32.5284565">
<ele>42.5</ele>
<time>2015-04-26T14:03:29Z</time>
</trkpt>
<trkpt lat="35.1430168" lon="32.5268609">
<ele>30.1</ele>
<time>2015-04-26T14:03:44Z</time>
</trkpt>
<trkpt lat="35.1424300" lon="32.5259510">
<ele>26.4</ele>
<time>2015-04-26T14:03:53Z</time>
</trkpt>
<trkpt lat="35.1418640" lon="32.5242413">
<ele>21.2</ele>
<time>2015-04-26T14:04:10Z</time>
</trkpt>
<trkpt lat="35.1411595" lon="32.5234276">
<ele>16.7</ele>
<time>2015-04-26T14:04:21Z</time>
</trkpt>
<trkpt lat="35.1376799" lon="32.5220874">
<ele>22.1</ele>
<time>2015-04-26T14:11:18Z</time>
</trkpt>
<trkpt lat="35.1352282" lon="32.5206439">
<ele>25.5</ele>
<time>2015-04-26T14:12:28Z</time>
</trkpt>
<trkpt lat="35.1332003" lon="32.5200540">
<ele>14.3</ele>
<time>2015-04-26T14:12:55Z</time>
</trkpt>
<trkpt lat="35.1315824" lon="32.5185677">
<ele>8.6</ele>
<time>2015-04-26T14:13:18Z</time>
</trkpt>
<trkpt lat="35.1303470" lon="32.5180277">
<ele>6.9</ele>
<time>2015-04-26T14:13:38Z</time>
</trkpt>
<trkpt lat="35.1289564" lon="32.5170286">
<ele>5.4</ele>
<time>2015-04-26T14:14:08Z</time>
</trkpt>
<trkpt lat="35.1266159" lon="32.5158158">
<ele>6.0</ele>
<time>2015-04-26T14:15:11Z</time>
</trkpt>
<trkpt lat="35.1261330" lon="32.5157265">
<ele>7.1</ele>
<time>2015-04-26T14:15:23Z</time>
</trkpt>
<trkpt lat="35.1242258" lon="32.5163168">
<ele>13.2</ele>
<time>2015-04-26T14:16:16Z</time>
</trkpt>
<trkpt lat="35.1238300" lon="32.5161818">
<ele>12.2</ele>
<time>2015-04-26T14:16:28Z</time>
</trkpt>
<trkpt lat="35.1225818" lon="32.5150458">
<ele>8.8</ele>
<time>2015-04-26T14:17:06Z</time>
</trkpt>
<trkpt lat="35.1225839" lon="32.5148970">
<ele>8.6</ele>
<time>2015-04-26T14:17:15Z</time>
</trkpt>
<trkpt lat="35.1196358" lon="32.5132468">
<ele>5.4</ele>
<time>2015-04-26T14:21:37Z</time>
</trkpt>
<trkpt lat="35.1158899" lon="32.5101619">
<ele>6.2</ele>
<time>2015-04-26T14:25:16Z</time>
</trkpt>
<trkpt lat="35.1136488" lon="32.5093129">
<ele>5.3</ele>
<time>2015-04-26T14:26:36Z</time>
</trkpt>
<trkpt lat="35.1120458" lon="32.5084595">
<ele>6.0</ele>
<time>2015-04-26T14:27:24Z</time>
</trkpt>
<trkpt lat="35.1057908" lon="32.5042777">
<ele>4.4</ele>
<time>2015-04-26T14:30:44Z</time>
</trkpt>
<trkpt lat="35.1039548" lon="32.5036935">
<ele>5.6</ele>
<time>2015-04-26T14:31:20Z</time>
</trkpt>
<trkpt lat="35.0963442" lon="32.4984695">
<ele>5.5</ele>
<time>2015-04-26T14:34:41Z</time>
</trkpt>
<trkpt lat="35.0936615" lon="32.4968820">
<ele>5.1</ele>
<time>2015-04-26T14:35:44Z</time>
</trkpt>
<trkpt lat="35.0886713" lon="32.4924003">
<ele>4.2</ele>
<time>2015-04-26T14:38:10Z</time>
</trkpt>
<trkpt lat="35.0864688" lon="32.4907639">
<ele>2.8</ele>
<time>2015-04-26T14:38:56Z</time>
</trkpt>
<trkpt lat="35.0826380" lon="32.4874493">
<ele>3.5</ele>
<time>2015-04-26T14:40:29Z</time>
</trkpt>
<trkpt lat="35.0794084" lon="32.4844418">
<ele>5.8</ele>
<time>2015-04-26T14:42:07Z</time>
</trkpt>
<trkpt lat="35.0774985" lon="32.4822061">
<ele>3.7</ele>
<time>2015-04-26T14:43:13Z</time>
</trkpt>
<trkpt lat="35.0766990" lon="32.4817814">
<ele>5.5</ele>
<time>2015-04-26T14:43:39Z</time>
</trkpt>
<trkpt lat="35.0762062" lon="32.4811808">
<ele>5.0</ele>
<time>2015-04-26T14:44:01Z</time>
</trkpt>
<trkpt lat="35.0756790" lon="32.4811326">
<ele>6.2</ele>
<time>2015-04-26T14:44:15Z</time>
</trkpt>
<trkpt lat="35.0743140" lon="32.4814640">
<ele>9.1</ele>
<time>2015-04-26T14:45:01Z</time>
</trkpt>
<trkpt lat="35.0734569" lon="32.4812337">
<ele>11.6</ele>
<time>2015-04-26T14:45:29Z</time>
</trkpt>
<trkpt lat="35.0728211" lon="32.4812816">
<ele>12.0</ele>
<time>2015-04-26T14:45:49Z</time>
</trkpt>
<trkpt lat="35.0733888" lon="32.4812392">
<ele>11.5</ele>
<time>2015-04-26T14:46:49Z</time>
</trkpt>
<trkpt lat="35.0741356" lon="32.4814431">
<ele>12.0</ele>
<time>2015-04-26T14:47:11Z</time>
</trkpt>
<trkpt lat="35.0761118" lon="32.4810795">
<ele>5.3</ele>
<time>2015-04-26T14:47:55Z</time>
</trkpt>
<trkpt lat="35.0732469" lon="32.4778500">
<ele>4.7</ele>
<time>2015-04-26T14:49:11Z</time>
</trkpt>
<trkpt lat="35.0700168" lon="32.4739456">
<ele>3.8</ele>
<time>2015-04-26T14:50:56Z</time>
</trkpt>
<trkpt lat="35.0674224" lon="32.4704537">
<ele>7.9</ele>
<time>2015-04-26T14:52:20Z</time>
</trkpt>
<trkpt lat="35.0664393" lon="32.4694044">
<ele>7.1</ele>
<time>2015-04-26T15:01:29Z</time>
</trkpt>
<trkpt lat="35.0655570" lon="32.4678169">
<ele>6.4</ele>
<time>2015-04-26T15:02:12Z</time>
</trkpt>
<trkpt lat="35.0655228" lon="32.4673546">
<ele>5.0</ele>
<time>2015-04-26T15:02:24Z</time>
</trkpt>
<trkpt lat="35.0652746" lon="32.4672951">
<ele>5.1</ele>
<time>2015-04-26T15:12:41Z</time>
</trkpt>
<trkpt lat="35.0646820" lon="32.4662648">
<ele>6.5</ele>
<time>2015-04-26T15:13:08Z</time>
</trkpt>
<trkpt lat="35.0633372" lon="32.4647277">
<ele>5.8</ele>
<time>2015-04-26T15:14:03Z</time>
</trkpt>
<trkpt lat="35.0607162" lon="32.4610626">
<ele>6.4</ele>
<time>2015-04-26T15:15:51Z</time>
</trkpt>
<trkpt lat="35.0598198" lon="32.4590050">
<ele>7.1</ele>
<time>2015-04-26T15:16:30Z</time>
</trkpt>
<trkpt lat="35.0586788" lon="32.4575316">
<ele>3.5</ele>
<time>2015-04-26T15:17:00Z</time>
</trkpt>
<trkpt lat="35.0574476" lon="32.4553205">
<ele>4.2</ele>
<time>2015-04-26T15:17:36Z</time>
</trkpt>
<trkpt lat="35.0569036" lon="32.4549591">
<ele>5.6</ele>
<time>2015-04-26T15:17:47Z</time>
</trkpt>
<trkpt lat="35.0549363" lon="32.4547061">
<ele>13.9</ele>
<time>2015-04-26T15:18:25Z</time>
</trkpt>
<trkpt lat="35.0542588" lon="32.4542133">
<ele>11.2</ele>
<time>2015-04-26T15:18:45Z</time>
</trkpt>
<trkpt lat="35.0528407" lon="32.4516131">
<ele>17.8</ele>
<time>2015-04-26T15:19:36Z</time>
</trkpt>
<trkpt lat="35.0505317" lon="32.4468105">
<ele>9.1</ele>
<time>2015-04-26T15:21:03Z</time>
</trkpt>
<trkpt lat="35.0474450" lon="32.4419966">
<ele>9.5</ele>
<time>2015-04-26T15:22:29Z</time>
</trkpt>
<trkpt lat="35.0463438" lon="32.4411134">
<ele>13.5</ele>
<time>2015-04-26T15:22:54Z</time>
</trkpt>
<trkpt lat="35.0426907" lon="32.4406926">
<ele>24.4</ele>
<time>2015-04-26T15:24:09Z</time>
</trkpt>
<trkpt lat="35.0421425" lon="32.4404653">
<ele>25.7</ele>
<time>2015-04-26T15:24:22Z</time>
</trkpt>
<trkpt lat="35.0414265" lon="32.4398656">
<ele>28.3</ele>
<time>2015-04-26T15:24:45Z</time>
</trkpt>
<trkpt lat="35.0396918" lon="32.4366873">
<ele>28.7</ele>
<time>2015-04-26T15:25:57Z</time>
</trkpt>
<trkpt lat="35.0389431" lon="32.4357289">
<ele>25.3</ele>
<time>2015-04-26T15:26:20Z</time>
</trkpt>
<trkpt lat="35.0385368" lon="32.4345095">
<ele>25.2</ele>
<time>2015-04-26T15:26:43Z</time>
</trkpt>
<trkpt lat="35.0372094" lon="32.4325080">
<ele>20.9</ele>
<time>2015-04-26T15:27:39Z</time>
</trkpt>
<trkpt lat="35.0369476" lon="32.4314975">
<ele>21.6</ele>
<time>2015-04-26T15:30:39Z</time>
</trkpt>
<trkpt lat="35.0360479" lon="32.4295427">
<ele>19.4</ele>
<time>2015-04-26T15:31:32Z</time>
</trkpt>
<trkpt lat="35.0354433" lon="32.4298685">
<ele>19.6</ele>
<time>2015-04-26T15:32:30Z</time>
</trkpt>
<trkpt lat="35.0355508" lon="32.4302970">
<ele>19.5</ele>
<time>2015-04-26T15:33:35Z</time>
</trkpt>
<trkpt lat="35.0357897" lon="32.4306463">
<ele>19.9</ele>
<time>2015-04-26T16:09:16Z</time>
</trkpt>
<trkpt lat="35.0356821" lon="32.4298098">
<ele>20.0</ele>
<time>2015-04-26T16:09:45Z</time>
</trkpt>
<trkpt lat="35.0360926" lon="32.4295941">
<ele>19.0</ele>
<time>2015-04-26T16:10:05Z</time>
</trkpt>
<trkpt lat="35.0356926" lon="32.4284167">
<ele>29.4</ele>
<time>2015-04-26T16:11:04Z</time>
</trkpt>
<trkpt lat="35.0358004" lon="32.4276353">
<ele>27.8</ele>
<time>2015-04-26T16:11:28Z</time>
</trkpt>
<trkpt lat="35.0357151" lon="32.4267676">
<ele>27.1</ele>
<time>2015-04-26T16:11:54Z</time>
</trkpt>
<trkpt lat="35.0367957" lon="32.4259939">
<ele>26.2</ele>
<time>2015-04-26T16:12:30Z</time>
</trkpt>
<trkpt lat="35.0363964" lon="32.4247050">
<ele>26.2</ele>
<time>2015-04-26T16:13:14Z</time>
</trkpt>
<trkpt lat="35.0357675" lon="32.4247322">
<ele>28.9</ele>
<time>2015-04-26T16:13:36Z</time>
</trkpt>
<trkpt lat="35.0353119" lon="32.4249448">
<ele>31.1</ele>
<time>2015-04-26T16:14:01Z</time>
</trkpt>
<trkpt lat="35.0360181" lon="32.4274216">
<ele>27.2</ele>
<time>2015-04-26T16:15:17Z</time>
</trkpt>
<trkpt lat="35.0357689" lon="32.4282614">
<ele>28.2</ele>
<time>2015-04-26T16:17:25Z</time>
</trkpt>
<trkpt lat="35.0362986" lon="32.4298750">
<ele>18.8</ele>
<time>2015-04-26T16:17:54Z</time>
</trkpt>
<trkpt lat="35.0362299" lon="32.4302241">
<ele>18.6</ele>
<time>2015-04-26T16:19:54Z</time>
</trkpt>
<trkpt lat="35.0360847" lon="32.4295822">
<ele>19.0</ele>
<time>2015-04-26T16:20:14Z</time>
</trkpt>
<trkpt lat="35.0354924" lon="32.4298985">
<ele>19.7</ele>
<time>2015-04-26T16:20:37Z</time>
</trkpt>
<trkpt lat="35.0361365" lon="32.4296351">
<ele>18.9</ele>
<time>2015-04-26T16:28:09Z</time>
</trkpt>
<trkpt lat="35.0375024" lon="32.4328231">
<ele>21.2</ele>
<time>2015-04-26T16:29:47Z</time>
</trkpt>
<trkpt lat="35.0386436" lon="32.4344114">
<ele>24.3</ele>
<time>2015-04-26T16:30:38Z</time>
</trkpt>
<trkpt lat="35.0390977" lon="32.4358678">
<ele>25.6</ele>
<time>2015-04-26T16:31:10Z</time>
</trkpt>
<trkpt lat="35.0397648" lon="32.4367112">
<ele>28.2</ele>
<time>2015-04-26T16:31:36Z</time>
</trkpt>
<trkpt lat="35.0413084" lon="32.4395157">
<ele>27.8</ele>
<time>2015-04-26T16:32:31Z</time>
</trkpt>
<trkpt lat="35.0419103" lon="32.4401764">
<ele>26.2</ele>
<time>2015-04-26T16:32:44Z</time>
</trkpt>
<trkpt lat="35.0426348" lon="32.4405821">
<ele>24.4</ele>
<time>2015-04-26T16:32:55Z</time>
</trkpt>
<trkpt lat="35.0461816" lon="32.4410009">
<ele>13.3</ele>
<time>2015-04-26T16:33:37Z</time>
</trkpt>
<trkpt lat="35.0474140" lon="32.4418344">
<ele>8.9</ele>
<time>2015-04-26T16:33:53Z</time>
</trkpt>
<trkpt lat="35.0507153" lon="32.4470153">
<ele>8.1</ele>
<time>2015-04-26T16:35:07Z</time>
</trkpt>
<trkpt lat="35.0543331" lon="32.4541734">
<ele>11.3</ele>
<time>2015-04-26T16:36:55Z</time>
</trkpt>
<trkpt lat="35.0548924" lon="32.4545865">
<ele>12.2</ele>
<time>2015-04-26T16:37:04Z</time>
</trkpt>
<trkpt lat="35.0569176" lon="32.4548637">
<ele>6.2</ele>
<time>2015-04-26T16:37:28Z</time>
</trkpt>
<trkpt lat="35.0574700" lon="32.4551765">
<ele>5.0</ele>
<time>2015-04-26T16:37:35Z</time>
</trkpt>
<trkpt lat="35.0589101" lon="32.4577253">
<ele>4.2</ele>
<time>2015-04-26T16:38:07Z</time>
</trkpt>
<trkpt lat="35.0599152" lon="32.4590049">
<ele>7.1</ele>
<time>2015-04-26T16:38:29Z</time>
</trkpt>
<trkpt lat="35.0607181" lon="32.4609001">
<ele>7.1</ele>
<time>2015-04-26T16:38:56Z</time>
</trkpt>
<trkpt lat="35.0634053" lon="32.4647173">
<ele>6.1</ele>
<time>2015-04-26T16:39:58Z</time>
</trkpt>
<trkpt lat="35.0648731" lon="32.4664139">
<ele>5.7</ele>
<time>2015-04-26T16:40:29Z</time>
</trkpt>
<trkpt lat="35.0665785" lon="32.4694100">
<ele>6.9</ele>
<time>2015-04-26T16:41:23Z</time>
</trkpt>
<trkpt lat="35.0664701" lon="32.4694272">
<ele>7.1</ele>
<time>2015-04-26T16:51:29Z</time>
</trkpt>
<trkpt lat="35.0672856" lon="32.4702135">
<ele>7.8</ele>
<time>2015-04-26T16:53:52Z</time>
</trkpt>
<trkpt lat="35.0700214" lon="32.4738427">
<ele>3.7</ele>
<time>2015-04-26T16:54:55Z</time>
</trkpt>
<trkpt lat="35.0734171" lon="32.4779753">
<ele>4.8</ele>
<time>2015-04-26T16:56:05Z</time>
</trkpt>
<trkpt lat="35.0765405" lon="32.4815304">
<ele>5.5</ele>
<time>2015-04-26T16:57:04Z</time>
</trkpt>
<trkpt lat="35.0774904" lon="32.4821896">
<ele>3.7</ele>
<time>2015-04-26T16:57:18Z</time>
</trkpt>
<trkpt lat="35.0796110" lon="32.4845807">
<ele>5.2</ele>
<time>2015-04-26T16:57:58Z</time>
</trkpt>
<trkpt lat="35.0821515" lon="32.4869450">
<ele>3.5</ele>
<time>2015-04-26T16:58:41Z</time>
</trkpt>
<trkpt lat="35.0863852" lon="32.4905926">
<ele>2.9</ele>
<time>2015-04-26T16:59:57Z</time>
</trkpt>
<trkpt lat="35.0884169" lon="32.4921108">
<ele>4.0</ele>
<time>2015-04-26T17:00:33Z</time>
</trkpt>
<trkpt lat="35.0933448" lon="32.4965164">
<ele>4.8</ele>
<time>2015-04-26T17:02:05Z</time>
</trkpt>
<trkpt lat="35.0965044" lon="32.4984837">
<ele>5.0</ele>
<time>2015-04-26T17:02:59Z</time>
</trkpt>
<trkpt lat="35.1038425" lon="32.5035486">
<ele>5.6</ele>
<time>2015-04-26T17:05:17Z</time>
</trkpt>
<trkpt lat="35.1060206" lon="32.5043287">
<ele>4.2</ele>
<time>2015-04-26T17:05:59Z</time>
</trkpt>
<trkpt lat="35.1108171" lon="32.5076065">
<ele>7.9</ele>
<time>2015-04-26T17:07:42Z</time>
</trkpt>
<trkpt lat="35.1108983" lon="32.5077162">
<ele>7.4</ele>
<time>2015-04-26T17:07:47Z</time>
</trkpt>
<trkpt lat="35.1107490" lon="32.5078968">
<ele>6.0</ele>
<time>2015-04-26T17:11:31Z</time>
</trkpt>
</trkseg>
</trk>
</gpx>